Time;durP1;ratioP1;P1;durP2;ratioP2;P2;SDS_P1;SDS_P2;PMS_P1;PMS_P2;Temp;Humidity;BMP_temperature;BMP_pressure;BME280_temperature;BME280_humidity;BME280_pressure;Samples;Min_cycle;Max_cycle;Signal;HPM_P1;HPM_P2
2024/01/30 00:00:50;;;;;;;13.27;10.20;;;3.40;64.40;;;;;;6230458;28;20470;-80
2024/01/30 00:03:53;;;;;;;12.37;10.83;;;3.40;64.40;;;;;;6229632;28;20246;-82
2024/01/30 00:06:57;;;;;;;11.93;10.73;;;3.30;64.50;;;;;;6230129;28;20244;-82
2024/01/30 00:10:00;;;;;;;12.57;10.10;;;3.30;64.70;;;;;;6231085;28;20234;-80
2024/01/30 00:13:03;;;;;;;11.53;10.30;;;3.30;64.60;;;;;;6231404;28;20266;-81
2024/01/30 00:16:09;;;;;;;10.93;9.93;;;3.20;64.80;;;;;;6228828;28;20770;-81
2024/01/30 00:19:12;;;;;;;12.57;9.93;;;3.30;64.50;;;;;;6229466;28;20250;-80
2024/01/30 00:22:15;;;;;;;11.63;10.50;;;3.30;64.60;;;;;;6231147;28;20230;-80
2024/01/30 00:25:19;;;;;;;12.90;9.93;;;3.20;64.70;;;;;;6231360;28;20231;-81
2024/01/30 00:28:22;;;;;;;14.17;10.20;;;3.20;64.70;;;;;;6218782;28;20784;-79
2024/01/30 00:31:27;;;;;;;11.00;9.90;;;3.10;64.80;;;;;;6230553;28;20227;-80
2024/01/30 00:34:30;;;;;;;10.93;9.80;;;3.20;64.80;;;;;;6215299;28;20243;-80
2024/01/30 00:37:33;;;;;;;12.43;10.70;;;3.20;64.80;;;;;;6239966;28;20249;-79
2024/01/30 00:40:36;;;;;;;13.03;10.97;;;3.20;64.80;;;;;;6231170;28;20231;-80
2024/01/30 00:43:40;;;;;;;12.60;11.20;;;3.10;65.10;;;;;;6228860;28;20246;-81
2024/01/30 00:46:44;;;;;;;13.47;12.07;;;3.10;65.30;;;;;;6228206;28;20948;-80
2024/01/30 00:49:47;;;;;;;14.00;12.37;;;3.00;65.40;;;;;;6228335;28;20439;-82
2024/01/30 00:52:50;;;;;;;14.13;11.80;;;3.00;65.60;;;;;;6234755;28;20241;-79
2024/01/30 00:55:53;;;;;;;15.67;12.07;;;2.90;65.80;;;;;;6235169;28;20249;-80
2024/01/30 00:58:57;;;;;;;14.03;12.30;;;2.80;66.10;;;;;;6234201;28;20273;-80
2024/01/30 01:02:01;;;;;;;14.20;11.77;;;2.80;66.20;;;;;;6232859;28;20246;-80
2024/01/30 01:05:05;;;;;;;12.80;11.47;;;2.70;66.20;;;;;;6232828;28;20357;-79
2024/01/30 01:08:08;;;;;;;12.97;11.60;;;2.70;66.20;;;;;;6231166;28;20594;-79
2024/01/30 01:11:12;;;;;;;14.57;11.30;;;2.70;66.40;;;;;;6236108;28;20238;-79
2024/01/30 01:14:15;;;;;;;15.63;12.57;;;2.70;66.50;;;;;;6233879;28;20341;-80
2024/01/30 01:17:20;;;;;;;13.23;11.70;;;2.60;66.70;;;;;;6234527;28;20239;-78
2024/01/30 01:20:23;;;;;;;12.27;11.00;;;2.50;66.60;;;;;;6233136;28;20397;-79
2024/01/30 01:23:26;;;;;;;12.47;11.03;;;2.50;66.60;;;;;;6236006;28;20243;-79
2024/01/30 01:26:29;;;;;;;11.40;10.30;;;2.50;66.60;;;;;;6224670;28;20242;-79
2024/01/30 01:29:33;;;;;;;14.10;11.40;;;2.50;66.80;;;;;;6233327;28;20249;-81
2024/01/30 01:32:38;;;;;;;12.23;10.67;;;2.40;66.90;;;;;;6230236;28;20242;-79
2024/01/30 01:35:41;;;;;;;12.20;11.10;;;2.40;66.90;;;;;;6219815;28;20289;-81
2024/01/30 01:38:44;;;;;;;11.30;10.07;;;2.40;67.00;;;;;;6235392;28;20246;-80
2024/01/30 01:41:48;;;;;;;11.63;10.47;;;2.30;67.00;;;;;;6235501;28;20223;-81
2024/01/30 01:44:52;;;;;;;11.33;10.33;;;2.20;67.10;;;;;;6233191;28;20313;-79
2024/01/30 01:47:56;;;;;;;12.13;11.03;;;2.20;67.20;;;;;;6231653;28;20335;-80
2024/01/30 01:51:00;;;;;;;12.20;10.00;;;2.10;67.30;;;;;;6233440;28;20234;-79
2024/01/30 01:54:05;;;;;;;11.87;10.67;;;2.10;67.40;;;;;;6233273;28;20238;-79
2024/01/30 01:57:08;;;;;;;12.57;10.73;;;2.10;67.50;;;;;;6231612;28;20242;-81
2024/01/30 02:00:13;;;;;;;11.43;10.33;;;2.10;67.50;;;;;;6233229;28;20338;-80
2024/01/30 02:03:21;;;;;;;11.67;10.47;;;2.00;67.60;;;;;;6230251;28;20271;-79
2024/01/30 02:06:25;;;;;;;11.50;10.40;;;2.00;67.70;;;;;;6235244;28;20274;-81
2024/01/30 02:09:28;;;;;;;12.93;11.50;;;1.90;67.80;;;;;;6233799;28;20332;-80
2024/01/30 02:12:31;;;;;;;11.87;10.70;;;1.90;68.00;;;;;;6232358;28;20243;-80
2024/01/30 02:15:34;;;;;;;11.27;10.20;;;1.90;68.00;;;;;;6221836;28;20322;-80
2024/01/30 02:18:43;;;;;;;11.40;10.27;;;1.90;67.90;;;;;;6233560;28;20529;-81
2024/01/30 02:21:47;;;;;;;11.83;10.73;;;1.90;68.00;;;;;;6224014;28;20245;-79
2024/01/30 02:24:51;;;;;;;12.60;11.33;;;1.90;68.00;;;;;;6220867;28;20253;-79
2024/01/30 02:27:54;;;;;;;12.90;11.67;;;1.90;68.20;;;;;;6221656;28;20242;-81
2024/01/30 02:30:58;;;;;;;11.83;10.00;;;1.90;68.20;;;;;;6218696;28;21364;-80
2024/01/30 02:34:02;;;;;;;11.63;10.47;;;1.90;68.20;;;;;;6215016;28;20235;-79
2024/01/30 02:37:07;;;;;;;14.63;11.70;;;1.90;68.30;;;;;;6220105;28;20778;-81
2024/01/30 02:40:10;;;;;;;14.30;11.80;;;1.80;68.40;;;;;;6220072;28;20249;-81
2024/01/30 02:43:13;;;;;;;12.70;11.47;;;1.80;68.30;;;;;;6219518;28;20235;-82
2024/01/30 02:46:17;;;;;;;13.57;12.17;;;1.80;68.40;;;;;;6221033;28;20242;-79
2024/01/30 02:49:20;;;;;;;13.23;11.83;;;1.80;68.30;;;;;;6222107;28;20238;-80
2024/01/30 02:52:25;;;;;;;12.73;11.53;;;1.80;68.40;;;;;;6220398;28;22785;-80
2024/01/30 02:55:28;;;;;;;13.47;11.60;;;1.80;68.40;;;;;;6219910;28;20251;-81
2024/01/30 02:58:31;;;;;;;13.03;11.73;;;1.80;68.50;;;;;;6219974;28;20333;-80
2024/01/30 03:01:42;;;;;;;12.43;11.23;;;1.80;68.50;;;;;;6209782;28;20250;-81
2024/01/30 03:04:46;;;;;;;12.03;10.73;;;1.80;68.60;;;;;;6206809;28;20318;-79
2024/01/30 03:07:51;;;;;;;14.30;11.53;;;1.80;68.70;;;;;;6206236;28;20250;-81
2024/01/30 03:10:54;;;;;;;12.80;11.47;;;1.80;68.70;;;;;;6208334;28;21090;-80
2024/01/30 03:13:57;;;;;;;11.37;10.30;;;1.80;68.80;;;;;;6205986;28;20330;-79
2024/01/30 03:17:01;;;;;;;12.00;10.67;;;1.80;68.90;;;;;;6207100;28;20239;-78
2024/01/30 03:20:06;;;;;;;12.33;11.13;;;1.80;68.90;;;;;;6208831;28;20378;-82
2024/01/30 03:23:10;;;;;;;12.40;11.20;;;1.80;69.00;;;;;;6206243;28;20239;-82
2024/01/30 03:26:15;;;;;;;12.57;11.37;;;1.70;69.00;;;;;;6207506;28;20760;-79
2024/01/30 03:29:18;;;;;;;12.30;11.00;;;1.80;69.10;;;;;;6215118;28;20242;-80
2024/01/30 03:32:21;;;;;;;13.93;11.93;;;1.70;69.20;;;;;;6229141;28;20382;-82
2024/01/30 03:35:25;;;;;;;13.40;11.23;;;1.70;69.50;;;;;;6211960;28;20354;-78
2024/01/30 03:38:29;;;;;;;13.80;11.23;;;1.80;69.40;;;;;;6218431;28;20235;-80
2024/01/30 03:41:33;;;;;;;11.70;10.60;;;1.80;69.40;;;;;;6215861;28;21356;-80
2024/01/30 03:44:36;;;;;;;12.40;11.30;;;1.70;69.40;;;;;;6218241;28;20737;-81
2024/01/30 03:47:39;;;;;;;11.23;10.23;;;1.80;69.40;;;;;;6216151;28;20247;-80
2024/01/30 03:50:43;;;;;;;14.73;10.93;;;1.70;69.40;;;;;;6203052;28;20668;-79
2024/01/30 03:53:48;;;;;;;12.83;11.53;;;1.70;69.80;;;;;;6197730;28;20247;-78
2024/01/30 03:56:51;;;;;;;12.00;10.67;;;1.70;69.70;;;;;;6216335;28;20266;-79
2024/01/30 03:59:54;;;;;;;13.93;10.20;;;1.70;69.70;;;;;;6208281;28;20726;-77
2024/01/30 04:02:57;;;;;;;12.63;11.33;;;1.70;69.70;;;;;;6218525;28;20250;-80
2024/01/30 04:06:01;;;;;;;12.33;11.03;;;1.70;69.90;;;;;;6218438;28;20249;-80
2024/01/30 04:09:05;;;;;;;12.47;11.17;;;1.70;69.90;;;;;;6218024;28;20238;-79
2024/01/30 04:12:09;;;;;;;12.77;11.57;;;1.70;70.00;;;;;;6216462;28;20231;-80
2024/01/30 04:15:13;;;;;;;15.57;11.03;;;1.70;70.30;;;;;;6219508;28;20245;-81
2024/01/30 04:18:17;;;;;;;12.83;10.87;;;1.80;70.30;;;;;;6216585;28;20249;-80
2024/01/30 04:21:22;;;;;;;13.37;11.03;;;2.00;69.90;;;;;;6215829;28;20243;-79
2024/01/30 04:24:26;;;;;;;14.17;12.13;;;2.00;69.80;;;;;;6203319;28;20249;-80
2024/01/30 04:27:29;;;;;;;12.47;11.17;;;2.10;69.50;;;;;;6215605;28;20243;-80
2024/01/30 04:30:33;;;;;;;11.57;10.37;;;2.00;69.60;;;;;;6217721;28;20254;-80
2024/01/30 04:33:36;;;;;;;12.63;11.33;;;2.00;69.70;;;;;;6198774;28;20239;-80
2024/01/30 04:36:39;;;;;;;13.97;11.50;;;2.00;69.80;;;;;;6217502;28;20239;-78
2024/01/30 04:39:44;;;;;;;14.83;11.37;;;1.90;69.70;;;;;;6215995;28;20238;-82
2024/01/30 04:42:47;;;;;;;15.50;11.93;;;1.90;69.90;;;;;;6216591;28;20250;-79
2024/01/30 04:45:51;;;;;;;13.93;10.93;;;1.90;69.90;;;;;;6217478;28;20250;-79
2024/01/30 04:48:54;;;;;;;11.17;10.20;;;1.90;69.80;;;;;;6215233;28;20345;-80
2024/01/30 04:51:57;;;;;;;11.70;10.50;;;1.90;69.80;;;;;;6242622;28;20238;-83
2024/01/30 04:55:02;;;;;;;11.90;10.70;;;2.00;69.90;;;;;;6241425;28;20643;-80
2024/01/30 04:58:05;;;;;;;11.27;10.17;;;2.00;69.80;;;;;;6245241;28;20760;-80
2024/01/30 05:01:08;;;;;;;12.07;10.27;;;2.10;69.50;;;;;;6245790;28;20788;-79
2024/01/30 05:04:12;;;;;;;14.13;10.57;;;2.10;69.80;;;;;;6247894;28;20244;-80
2024/01/30 05:07:19;;;;;;;11.57;10.40;;;2.10;69.60;;;;;;6247995;28;20238;-77
2024/01/30 05:10:24;;;;;;;11.87;10.67;;;2.10;69.60;;;;;;6245947;28;20238;-78
2024/01/30 05:13:27;;;;;;;12.47;10.53;;;2.10;69.60;;;;;;6258847;28;20234;-79
2024/01/30 05:16:31;;;;;;;10.70;9.80;;;2.10;69.60;;;;;;6234201;28;20312;-78
2024/01/30 05:19:34;;;;;;;12.40;11.10;;;2.20;69.60;;;;;;6256575;28;20226;-78
2024/01/30 05:22:37;;;;;;;11.23;9.97;;;2.20;69.20;;;;;;6265917;28;20227;-78
2024/01/30 05:25:42;;;;;;;11.90;9.50;;;2.30;69.00;;;;;;6253740;28;20242;-80
2024/01/30 05:28:45;;;;;;;14.00;11.30;;;2.30;68.90;;;;;;6264697;28;20482;-77
2024/01/30 05:31:49;;;;;;;13.03;10.97;;;2.30;68.80;;;;;;6265078;28;20234;-78
2024/01/30 05:34:52;;;;;;;12.77;11.57;;;2.30;68.80;;;;;;6257340;28;20231;-79
2024/01/30 05:37:55;;;;;;;12.53;10.73;;;2.30;69.00;;;;;;6272676;28;20245;-77
2024/01/30 05:41:00;;;;;;;12.03;10.83;;;2.30;68.80;;;;;;6272156;28;20253;-79
2024/01/30 05:44:03;;;;;;;12.40;11.10;;;2.20;69.00;;;;;;6229553;28;20242;-78
2024/01/30 05:47:06;;;;;;;11.77;10.57;;;2.30;68.90;;;;;;6242838;28;20253;-82
2024/01/30 05:50:09;;;;;;;10.70;9.80;;;2.40;68.90;;;;;;6255463;28;20230;-80
2024/01/30 05:53:13;;;;;;;11.53;10.53;;;2.30;68.70;;;;;;6264152;28;20231;-81
2024/01/30 05:56:18;;;;;;;12.47;11.10;;;2.40;68.60;;;;;;6271691;28;20242;-80
2024/01/30 05:59:21;;;;;;;11.47;10.37;;;2.40;68.70;;;;;;6260063;28;20239;-79
2024/01/30 06:02:25;;;;;;;11.70;10.50;;;2.30;68.80;;;;;;6252702;28;20295;-80
2024/01/30 06:05:28;;;;;;;12.30;10.97;;;2.40;68.90;;;;;;6255138;28;20242;-77
2024/01/30 06:08:31;;;;;;;12.90;11.33;;;2.40;68.70;;;;;;6256585;28;20234;-80
2024/01/30 06:11:36;;;;;;;12.27;10.77;;;2.30;68.80;;;;;;6257650;28;21117;-81
2024/01/30 06:14:39;;;;;;;13.57;11.37;;;2.30;68.90;;;;;;6253714;28;20261;-78
2024/01/30 06:17:44;;;;;;;14.77;11.37;;;2.20;69.10;;;;;;6272319;28;20286;-76
2024/01/30 06:20:47;;;;;;;13.87;12.27;;;2.20;69.20;;;;;;6268407;28;20320;-80
2024/01/30 06:23:50;;;;;;;13.27;11.87;;;2.20;69.30;;;;;;6257949;28;20269;-76
2024/01/30 06:26:55;;;;;;;16.93;11.93;;;2.20;69.50;;;;;;6249376;28;20241;-81
2024/01/30 06:29:58;;;;;;;15.47;12.80;;;2.30;69.30;;;;;;6251568;28;20290;-78
2024/01/30 06:33:01;;;;;;;12.73;11.43;;;2.20;69.40;;;;;;6249981;28;20790;-77
2024/01/30 06:36:07;;;;;;;14.37;12.47;;;2.20;69.40;;;;;;6247497;28;20751;-78
2024/01/30 06:39:10;;;;;;;13.30;11.70;;;2.10;69.50;;;;;;6213740;28;20235;-78
2024/01/30 06:42:15;;;;;;;13.67;12.20;;;2.00;69.80;;;;;;6213870;28;20244;-78
2024/01/30 06:45:19;;;;;;;15.10;13.50;;;2.00;69.80;;;;;;6253589;28;20981;-78
2024/01/30 06:48:22;;;;;;;18.17;13.80;;;2.00;70.20;;;;;;6229126;28;20234;-78
2024/01/30 06:51:25;;;;;;;14.00;12.00;;;1.90;70.10;;;;;;6232020;28;20855;-78
2024/01/30 06:54:28;;;;;;;15.83;12.97;;;1.90;70.10;;;;;;6228072;28;20239;-77
2024/01/30 06:57:33;;;;;;;17.40;13.53;;;1.90;70.30;;;;;;6230018;28;20310;-79
2024/01/30 07:00:36;;;;;;;13.27;12.07;;;1.90;70.50;;;;;;6229700;28;20234;-76
2024/01/30 07:03:39;;;;;;;15.07;12.40;;;1.90;70.30;;;;;;6229978;28;20311;-79
2024/01/30 07:06:43;;;;;;;13.10;11.80;;;2.00;70.40;;;;;;6234191;28;20257;-76
2024/01/30 07:09:47;;;;;;;14.07;12.67;;;2.00;70.30;;;;;;6227337;28;20238;-77
2024/01/30 07:12:52;;;;;;;17.80;13.83;;;2.00;70.40;;;;;;6227326;28;20270;-77
2024/01/30 07:15:55;;;;;;;17.60;13.67;;;2.00;70.40;;;;;;6230660;28;21522;-78
2024/01/30 07:18:58;;;;;;;16.13;14.03;;;2.00;70.30;;;;;;6231531;28;21535;-79
2024/01/30 07:22:02;;;;;;;17.10;13.70;;;2.10;70.20;;;;;;6233045;28;20238;-79
2024/01/30 07:25:07;;;;;;;15.97;14.27;;;2.10;70.10;;;;;;6230305;28;20253;-78
2024/01/30 07:28:13;;;;;;;21.13;14.70;;;2.10;70.20;;;;;;6219328;28;20246;-79
2024/01/30 07:31:20;;;;;;;18.27;15.47;;;2.20;70.10;;;;;;6227710;28;20959;-79
2024/01/30 07:34:23;;;;;;;22.70;13.40;;;2.30;70.10;;;;;;6202351;28;20234;-78
2024/01/30 07:37:28;;;;;;;15.70;13.50;;;2.30;69.90;;;;;;6243897;28;20230;-77
2024/01/30 07:40:33;;;;;;;19.67;14.33;;;2.40;69.70;;;;;;6245014;28;20230;-78
2024/01/30 07:43:38;;;;;;;19.13;13.67;;;2.40;69.60;;;;;;6233010;28;20249;-78
2024/01/30 07:46:42;;;;;;;16.30;13.40;;;2.40;69.50;;;;;;6231070;28;20238;-79
2024/01/30 07:49:45;;;;;;;17.67;14.10;;;2.40;69.50;;;;;;6232298;28;20230;-80
2024/01/30 07:52:51;;;;;;;21.53;13.23;;;2.50;69.30;;;;;;6227665;28;20238;-76
2024/01/30 07:55:54;;;;;;;14.57;12.77;;;2.50;69.10;;;;;;6233137;28;23339;-78
2024/01/30 07:58:58;;;;;;;20.03;13.60;;;2.60;69.20;;;;;;6244763;28;20732;-80
2024/01/30 08:02:01;;;;;;;15.67;12.93;;;2.70;69.10;;;;;;6231395;28;20243;-80
2024/01/30 08:05:05;;;;;;;19.50;14.83;;;2.80;68.80;;;;;;6231071;28;20242;-79
2024/01/30 08:08:08;;;;;;;20.17;13.77;;;2.90;68.30;;;;;;6235874;28;20969;-78
2024/01/30 08:11:13;;;;;;;16.60;13.33;;;2.90;68.20;;;;;;6235117;28;20238;-79
2024/01/30 08:14:19;;;;;;;18.93;14.97;;;2.90;68.00;;;;;;6223019;28;20243;-78
2024/01/30 08:17:23;;;;;;;19.43;15.70;;;2.90;68.30;;;;;;6234936;28;20242;-77
2024/01/30 08:20:26;;;;;;;23.33;15.90;;;2.90;68.30;;;;;;6234275;28;20826;-76
2024/01/30 08:23:29;;;;;;;19.03;16.53;;;3.00;68.20;;;;;;6226331;28;20261;-79
2024/01/30 08:26:32;;;;;;;20.13;16.37;;;3.00;68.30;;;;;;6228991;28;20250;-80
2024/01/30 08:29:37;;;;;;;21.33;16.30;;;3.00;68.30;;;;;;6227800;28;20234;-79
2024/01/30 08:32:40;;;;;;;17.30;14.80;;;3.10;68.10;;;;;;6229022;28;20277;-79
2024/01/30 08:35:44;;;;;;;20.77;14.83;;;3.10;67.90;;;;;;6232737;28;20242;-76
2024/01/30 08:38:47;;;;;;;17.27;15.27;;;3.10;67.70;;;;;;6234315;28;20728;-78
2024/01/30 08:41:50;;;;;;;18.53;14.53;;;3.30;67.50;;;;;;6226795;28;20231;-77
2024/01/30 08:44:56;;;;;;;15.63;13.80;;;3.30;67.50;;;;;;6227769;28;20774;-78
2024/01/30 08:47:59;;;;;;;21.47;14.47;;;3.50;66.90;;;;;;6227368;28;20238;-75
2024/01/30 08:51:02;;;;;;;18.23;14.13;;;3.60;66.40;;;;;;6227377;28;20242;-78
2024/01/30 08:54:05;;;;;;;20.83;14.70;;;3.80;66.20;;;;;;6231121;28;20239;-78
2024/01/30 08:57:08;;;;;;;23.83;15.73;;;3.90;66.00;;;;;;6225072;28;20266;-77
2024/01/30 09:00:15;;;;;;;21.50;14.37;;;4.00;66.00;;;;;;6224717;28;20566;-79
2024/01/30 09:03:19;;;;;;;19.57;14.23;;;4.10;65.90;;;;;;6223030;28;20909;-76
2024/01/30 09:06:22;;;;;;;15.17;12.50;;;4.30;65.20;;;;;;6214390;28;20235;-79
2024/01/30 09:09:25;;;;;;;14.70;11.80;;;4.50;64.00;;;;;;6189880;28;20226;-77
2024/01/30 09:12:28;;;;;;;16.57;13.50;;;4.70;63.00;;;;;;6224713;28;20244;-78
2024/01/30 09:15:33;;;;;;;17.67;12.30;;;4.80;62.80;;;;;;6232583;28;20230;-76
2024/01/30 09:18:36;;;;;;;14.33;11.47;;;5.00;62.20;;;;;;6233057;28;20223;-77
2024/01/30 09:21:39;;;;;;;13.80;11.93;;;4.90;61.90;;;;;;6233563;28;20291;-78
2024/01/30 09:24:43;;;;;;;15.30;12.47;;;4.70;62.60;;;;;;6230477;28;20898;-77
2024/01/30 09:27:47;;;;;;;13.23;11.87;;;4.70;62.70;;;;;;6232543;28;20300;-77
2024/01/30 09:30:51;;;;;;;14.23;12.07;;;4.70;62.70;;;;;;6231923;28;20946;-78
2024/01/30 09:33:55;;;;;;;14.50;12.00;;;4.50;62.90;;;;;;6231850;28;20246;-79
2024/01/30 09:36:59;;;;;;;14.30;12.73;;;4.70;62.40;;;;;;6233231;28;20939;-78
2024/01/30 09:40:02;;;;;;;14.07;11.97;;;4.80;62.30;;;;;;6230348;28;20235;-77
2024/01/30 09:43:06;;;;;;;13.63;12.03;;;4.90;62.30;;;;;;6223925;28;20244;-80
2024/01/30 09:46:14;;;;;;;15.20;11.70;;;5.00;62.20;;;;;;6238973;28;20369;-76
2024/01/30 09:49:18;;;;;;;13.67;11.67;;;5.00;61.90;;;;;;6232323;28;20250;-75
2024/01/30 09:52:23;;;;;;;13.90;11.67;;;5.00;61.90;;;;;;6211321;28;20235;-75
2024/01/30 09:55:27;;;;;;;16.57;12.70;;;4.90;62.00;;;;;;6243784;28;20243;-76
2024/01/30 09:58:30;;;;;;;14.23;12.67;;;5.00;62.40;;;;;;6206942;28;20231;-78
2024/01/30 10:01:36;;;;;;;13.27;11.67;;;5.10;62.00;;;;;;6210697;28;20230;-77
2024/01/30 10:04:39;;;;;;;15.67;11.40;;;5.10;61.50;;;;;;6211853;28;20285;-81
2024/01/30 10:07:53;;;;;;;14.40;11.60;;;5.30;61.30;;;;;;6219486;28;20361;-78
2024/01/30 10:10:57;;;;;;;16.63;11.43;;;5.50;60.90;;;;;;6218841;28;20267;-80
2024/01/30 10:14:02;;;;;;;14.57;11.27;;;5.60;60.40;;;;;;6219672;28;20247;-78
2024/01/30 10:17:07;;;;;;;15.07;10.57;;;5.70;60.40;;;;;;6219618;28;20833;-78
2024/01/30 10:20:25;;;;;;;12.87;11.57;;;5.80;59.60;;;;;;6219058;28;20238;-77
2024/01/30 10:23:30;;;;;;;13.73;11.30;;;5.90;59.40;;;;;;6225674;28;20790;-77
2024/01/30 10:26:39;;;;;;;14.20;11.53;;;6.00;59.60;;;;;;6231144;28;21795;-79
2024/01/30 10:29:42;;;;;;;11.07;9.93;;;6.00;58.70;;;;;;6233148;28;20312;-81
2024/01/30 10:32:47;;;;;;;12.80;10.53;;;6.00;58.20;;;;;;6229763;28;20735;-79
2024/01/30 10:35:52;;;;;;;11.27;10.17;;;6.00;58.00;;;;;;6232926;28;20242;-78
2024/01/30 10:39:00;;;;;;;12.10;9.70;;;6.10;58.00;;;;;;6231299;28;20235;-76
2024/01/30 10:42:06;;;;;;;11.07;9.87;;;6.10;58.50;;;;;;6231614;28;20324;-77
2024/01/30 10:45:12;;;;;;;10.97;9.93;;;6.20;57.80;;;;;;6233347;28;20234;-77
2024/01/30 10:48:19;;;;;;;11.67;9.77;;;6.30;57.20;;;;;;6232564;28;20621;-78
2024/01/30 10:51:29;;;;;;;10.70;9.70;;;6.30;57.40;;;;;;6232684;28;20262;-79
2024/01/30 10:54:35;;;;;;;11.70;10.57;;;6.30;57.40;;;;;;6230228;28;20243;-80
2024/01/30 10:57:38;;;;;;;11.50;9.30;;;6.30;57.20;;;;;;6230691;28;20254;-80
2024/01/30 11:00:42;;;;;;;11.13;9.97;;;6.30;57.10;;;;;;6230251;28;20245;-80
2024/01/30 11:03:47;;;;;;;10.90;9.53;;;6.30;57.10;;;;;;6220489;28;20786;-81
2024/01/30 11:06:51;;;;;;;13.83;9.67;;;6.40;57.20;;;;;;6229734;28;20333;-80
2024/01/30 11:10:01;;;;;;;10.23;9.23;;;6.60;57.00;;;;;;6221284;28;20318;-79
2024/01/30 11:13:13;;;;;;;12.87;10.20;;;6.70;56.50;;;;;;6241835;28;20324;-77
2024/01/30 11:16:43;;;;;;;11.67;9.63;;;6.90;56.40;;;;;;6210744;28;20235;-78
2024/01/30 11:20:03;;;;;;;11.23;10.03;;;6.90;56.40;;;;;;6241385;28;20254;-76
2024/01/30 11:23:07;;;;;;;11.33;10.13;;;6.90;56.20;;;;;;6240795;28;20293;-77
2024/01/30 11:26:12;;;;;;;12.90;10.23;;;6.90;56.10;;;;;;6242345;28;20280;-78
2024/01/30 11:29:15;;;;;;;11.47;10.37;;;6.80;56.70;;;;;;6243132;28;21481;-78
2024/01/30 11:32:24;;;;;;;11.93;10.73;;;6.80;56.60;;;;;;6235638;28;21603;-77
2024/01/30 11:35:31;;;;;;;11.27;10.13;;;6.80;56.70;;;;;;6228546;28;20283;-77
2024/01/30 11:38:34;;;;;;;12.47;11.27;;;6.80;56.50;;;;;;6222687;28;20238;-80
2024/01/30 11:41:39;;;;;;;11.73;10.53;;;6.80;56.70;;;;;;6241804;28;20242;-78
2024/01/30 11:44:42;;;;;;;12.87;9.80;;;6.90;56.80;;;;;;6240306;28;20298;-77
2024/01/30 11:47:49;;;;;;;14.33;11.03;;;7.00;56.80;;;;;;6227506;28;20814;-79
2024/01/30 11:50:54;;;;;;;18.20;11.77;;;7.10;57.00;;;;;;6229675;28;20747;-80
2024/01/30 11:53:57;;;;;;;11.83;10.60;;;7.00;57.00;;;;;;6227603;28;20319;-80
2024/01/30 11:57:00;;;;;;;15.80;10.30;;;7.20;56.80;;;;;;6230086;28;20730;-78
2024/01/30 12:00:08;;;;;;;13.37;10.03;;;7.20;56.50;;;;;;6227783;28;20719;-77
2024/01/30 12:03:12;;;;;;;12.23;10.40;;;7.10;56.80;;;;;;6228620;28;20329;-80
2024/01/30 12:06:17;;;;;;;11.17;10.07;;;7.20;57.00;;;;;;6228965;28;20425;-76
2024/01/30 12:09:21;;;;;;;11.53;10.43;;;7.30;56.40;;;;;;6228563;28;21012;-78
2024/01/30 12:12:26;;;;;;;13.87;10.97;;;7.40;56.40;;;;;;6228071;28;20404;-77
2024/01/30 12:15:29;;;;;;;10.47;9.47;;;7.50;56.40;;;;;;6229926;28;20262;-79
2024/01/30 12:18:33;;;;;;;11.50;9.87;;;7.50;55.90;;;;;;6229824;28;20253;-78
2024/01/30 12:21:39;;;;;;;12.67;10.63;;;7.50;56.10;;;;;;6222844;28;20231;-77
2024/01/30 12:24:42;;;;;;;12.20;10.30;;;7.50;56.40;;;;;;6227781;28;20231;-79
2024/01/30 12:27:49;;;;;;;12.10;11.00;;;7.60;56.30;;;;;;6228249;28;20269;-78
2024/01/30 12:30:56;;;;;;;13.20;10.37;;;7.60;56.50;;;;;;6228037;28;20239;-78
2024/01/30 12:34:01;;;;;;;13.37;11.43;;;7.60;56.40;;;;;;6212695;28;20998;-78
2024/01/30 12:37:08;;;;;;;11.80;10.47;;;7.50;56.80;;;;;;6226231;28;20235;-77
2024/01/30 12:40:14;;;;;;;12.47;10.80;;;7.50;56.80;;;;;;6229558;28;20235;-79
2024/01/30 12:43:18;;;;;;;10.67;9.77;;;7.60;56.60;;;;;;6227255;28;20249;-77
2024/01/30 12:46:35;;;;;;;11.00;9.97;;;7.70;56.60;;;;;;6239424;28;20616;-80
2024/01/30 12:49:39;;;;;;;11.90;10.57;;;7.80;56.90;;;;;;6211300;28;20856;-78
2024/01/30 12:52:44;;;;;;;11.27;10.10;;;7.80;56.80;;;;;;6210062;28;20239;-80
2024/01/30 12:55:53;;;;;;;11.90;9.73;;;7.80;57.00;;;;;;6208280;28;20251;-78
2024/01/30 12:58:56;;;;;;;11.20;10.20;;;7.80;56.90;;;;;;6205030;28;20246;-79
2024/01/30 13:02:01;;;;;;;11.13;10.13;;;7.80;57.30;;;;;;6207967;28;20290;-76
2024/01/30 13:05:04;;;;;;;11.60;10.40;;;7.90;57.20;;;;;;6207788;28;20735;-78
2024/01/30 13:08:09;;;;;;;13.47;11.37;;;8.00;57.00;;;;;;6211261;28;20235;-79
2024/01/30 13:11:12;;;;;;;12.97;10.37;;;7.80;57.50;;;;;;6228703;28;20370;-78
2024/01/30 13:14:23;;;;;;;11.43;10.33;;;7.80;57.60;;;;;;6232135;28;20682;-77
2024/01/30 13:17:26;;;;;;;15.43;10.00;;;7.80;57.90;;;;;;6233226;28;20231;-78
2024/01/30 13:20:29;;;;;;;11.50;10.27;;;7.80;57.90;;;;;;6231678;28;20246;-78
2024/01/30 13:23:34;;;;;;;11.43;10.40;;;7.80;58.10;;;;;;6233694;28;20234;-78
2024/01/30 13:26:37;;;;;;;13.10;10.27;;;7.90;57.90;;;;;;6232057;28;20269;-78
2024/01/30 13:29:41;;;;;;;13.17;10.50;;;7.80;58.40;;;;;;6230968;28;20296;-79
2024/01/30 13:32:46;;;;;;;11.23;10.33;;;7.80;58.30;;;;;;6232845;28;20335;-80
2024/01/30 13:35:49;;;;;;;10.73;9.63;;;7.80;58.60;;;;;;6231834;28;20239;-80
2024/01/30 13:38:53;;;;;;;13.07;9.87;;;8.00;58.40;;;;;;6232188;28;20349;-78
2024/01/30 13:41:57;;;;;;;14.77;9.93;;;8.00;58.30;;;;;;6230962;28;20292;-80
2024/01/30 13:45:00;;;;;;;11.80;10.60;;;8.00;58.20;;;;;;6226562;28;20269;-79
2024/01/30 13:48:04;;;;;;;13.47;10.37;;;8.00;58.30;;;;;;6231626;28;20261;-81
2024/01/30 13:51:07;;;;;;;11.37;10.07;;;8.00;58.50;;;;;;6231961;28;20269;-79
2024/01/30 13:54:12;;;;;;;13.60;10.10;;;8.00;58.70;;;;;;6244948;28;20421;-79
2024/01/30 13:57:15;;;;;;;10.50;9.47;;;8.00;58.70;;;;;;6242522;28;20231;-78
2024/01/30 14:00:18;;;;;;;12.03;10.20;;;8.10;58.70;;;;;;6242364;28;20289;-79
2024/01/30 14:03:21;;;;;;;12.80;9.83;;;8.10;58.90;;;;;;6245046;28;20238;-77
2024/01/30 14:06:24;;;;;;;11.10;10.10;;;8.00;58.80;;;;;;6244584;28;20242;-77
2024/01/30 14:09:29;;;;;;;13.87;10.63;;;8.00;59.10;;;;;;6244434;28;20269;-81
2024/01/30 14:12:32;;;;;;;18.10;14.27;;;8.00;59.40;;;;;;6244275;28;20238;-80
2024/01/30 14:15:35;;;;;;;12.43;11.20;;;8.00;59.40;;;;;;6233788;28;20277;-79
2024/01/30 14:18:38;;;;;;;12.23;11.03;;;8.00;59.40;;;;;;6244075;28;20272;-80
2024/01/30 14:21:41;;;;;;;16.07;11.47;;;8.00;59.30;;;;;;6220558;28;20779;-77
2024/01/30 14:24:47;;;;;;;11.07;10.07;;;8.00;59.50;;;;;;6217169;28;20745;-77
2024/01/30 14:27:51;;;;;;;15.60;11.13;;;8.00;59.70;;;;;;6217733;28;20241;-79
2024/01/30 14:30:54;;;;;;;12.27;10.43;;;8.00;59.70;;;;;;6217446;28;20235;-78
2024/01/30 14:33:57;;;;;;;15.80;11.00;;;8.00;59.90;;;;;;6219994;28;20252;-78
2024/01/30 14:37:01;;;;;;;11.20;9.70;;;8.00;60.00;;;;;;6211315;28;20249;-79
2024/01/30 14:40:07;;;;;;;13.80;10.27;;;8.00;60.30;;;;;;6230857;28;20239;-79
2024/01/30 14:43:10;;;;;;;11.87;9.80;;;8.00;60.10;;;;;;6218492;28;20281;-77
2024/01/30 14:46:14;;;;;;;11.53;9.57;;;8.00;60.20;;;;;;6242537;28;20754;-78
2024/01/30 14:49:17;;;;;;;13.00;11.70;;;8.10;60.10;;;;;;6248120;28;20242;-77
2024/01/30 14:52:20;;;;;;;12.63;11.33;;;8.00;60.40;;;;;;6222888;28;20273;-77
2024/01/30 14:55:25;;;;;;;12.73;11.43;;;7.90;60.70;;;;;;6203721;28;20239;-79
2024/01/30 14:58:28;;;;;;;12.83;11.53;;;8.00;60.50;;;;;;6217257;28;20238;-79
2024/01/30 15:01:31;;;;;;;12.27;10.33;;;8.00;60.50;;;;;;6218565;28;20760;-77
2024/01/30 15:04:35;;;;;;;23.17;12.10;;;8.00;60.50;;;;;;6218127;28;20243;-78
2024/01/30 15:07:38;;;;;;;16.47;11.27;;;7.90;60.90;;;;;;6216862;28;20242;-78
2024/01/30 15:10:44;;;;;;;18.10;11.77;;;7.80;61.10;;;;;;6217648;28;20330;-77
2024/01/30 15:13:49;;;;;;;12.43;11.33;;;7.80;61.30;;;;;;6216796;28;20243;-79
2024/01/30 15:16:52;;;;;;;13.40;10.97;;;7.80;61.50;;;;;;6219683;28;20234;-77
2024/01/30 15:19:55;;;;;;;12.90;11.60;;;7.70;61.50;;;;;;6220350;28;20242;-77
2024/01/30 15:22:58;;;;;;;13.93;11.83;;;7.70;61.80;;;;;;6210156;28;20231;-78
2024/01/30 15:26:03;;;;;;;14.37;11.63;;;7.60;62.00;;;;;;6215576;28;20277;-79
2024/01/30 15:29:06;;;;;;;14.20;11.57;;;7.50;62.20;;;;;;6219476;28;20293;-77
2024/01/30 15:32:09;;;;;;;12.73;10.60;;;7.50;62.20;;;;;;6216279;28;20544;-77
2024/01/30 15:35:13;;;;;;;12.43;11.17;;;7.50;62.50;;;;;;6217057;28;20308;-78
2024/01/30 15:38:17;;;;;;;11.57;10.47;;;7.40;62.50;;;;;;6219258;28;20239;-77
2024/01/30 15:41:22;;;;;;;18.13;15.30;;;7.30;62.60;;;;;;6218023;28;21650;-77
2024/01/30 15:44:25;;;;;;;22.97;16.40;;;7.30;62.80;;;;;;6217986;28;20238;-78
2024/01/30 15:47:28;;;;;;;11.93;10.73;;;7.30;62.70;;;;;;6211412;28;20234;-77